createdAt,value
2023-02-04T02:20:51.108Z,2.08
2023-02-04T02:23:27.362Z,1.83
2023-02-04T02:25:54.818Z,1.92
2023-02-04T02:28:24.578Z,1.42
2023-02-04T02:30:52.416Z,1.58
2023-02-04T02:33:20.553Z,1.58
2023-02-04T02:40:50.184Z,1.15
2023-02-04T07:56:06.597Z,9.43
2023-02-04T07:58:34.266Z,10.88
2023-02-04T08:01:02.073Z,6.47
2023-02-04T08:03:29.804Z,11.65
2023-02-04T08:05:57.296Z,7.28
2023-02-04T08:08:24.634Z,4.47
2023-02-04T08:10:52.437Z,3.80
2023-02-04T08:13:19.874Z,4.10
2023-02-04T08:15:47.421Z,4.03
2023-02-04T08:18:15.200Z,3.47
2023-02-04T08:20:42.584Z,3.83
2023-02-04T08:23:09.986Z,4.00
2023-02-04T08:25:37.787Z,3.70
2023-02-04T08:28:05.232Z,3.47
2023-02-04T08:30:32.935Z,3.72
2023-02-04T08:33:00.854Z,3.60
2023-02-04T08:35:28.262Z,4.10
2023-02-04T08:37:55.626Z,3.75
2023-02-04T08:40:23.306Z,3.67
2023-02-04T08:42:50.673Z,2.80
2023-02-04T08:45:18.068Z,2.75
2023-02-04T08:47:45.789Z,2.75
2023-02-04T08:50:13.465Z,3.03
2023-02-04T08:52:40.840Z,3.15
2023-02-04T08:55:08.812Z,2.72
2023-02-04T08:57:36.210Z,3.35
2023-02-04T09:00:04.044Z,2.95
2023-02-04T09:02:31.780Z,2.35
2023-02-04T09:04:59.152Z,3.10
2023-02-04T09:07:26.550Z,2.70
2023-02-04T09:09:54.220Z,2.60
2023-02-04T09:12:21.608Z,2.83
2023-02-04T09:14:49.004Z,3.30
2023-02-04T09:17:16.708Z,2.80
2023-02-04T09:19:44.274Z,2.60
2023-02-04T09:22:13.324Z,2.30
2023-02-04T09:24:41.306Z,3.30
2023-02-04T09:27:08.718Z,3.10
2023-02-04T09:29:36.178Z,3.72
2023-02-04T09:32:03.948Z,3.12
2023-02-04T09:34:31.389Z,4.07
2023-02-04T09:36:58.748Z,2.17
2023-02-04T09:39:26.396Z,2.53
2023-02-04T09:41:56.601Z,1.98
2023-02-04T09:44:25.945Z,2.80
2023-02-04T09:46:56.104Z,3.78
2023-02-04T09:49:23.762Z,2.42
2023-02-04T09:51:51.448Z,1.73
2023-02-04T09:54:22.234Z,1.40
2023-02-04T09:56:50.625Z,2.10
2023-02-04T09:59:20.937Z,1.90
2023-02-04T10:01:55.623Z,1.00
2023-02-04T10:04:23.685Z,1.10
2023-02-04T10:06:51.128Z,1.10
2023-02-04T10:09:18.762Z,1.20
2023-02-04T10:11:48.040Z,1.48
2023-02-04T10:14:18.451Z,1.67
2023-02-04T10:17:00.165Z,1.40
2023-02-04T10:19:29.260Z,1.65
2023-02-04T10:21:57.772Z,1.58
2023-02-04T10:24:30.616Z,1.45
2023-02-04T10:27:08.948Z,1.45
2023-02-04T10:29:36.560Z,1.70
2023-02-04T10:32:04.356Z,1.60
2023-02-04T10:34:39.689Z,1.55
2023-02-04T10:37:22.221Z,1.50
2023-02-04T10:39:49.974Z,2.05
2023-02-04T10:42:23.428Z,1.60
2023-02-04T10:44:50.926Z,1.60
2023-02-04T10:47:20.964Z,1.58
2023-02-04T10:49:59.209Z,1.45
2023-02-04T10:52:35.714Z,1.73
2023-02-04T10:55:09.093Z,1.75
2023-02-04T10:57:39.168Z,1.65
2023-02-04T11:00:17.462Z,1.48
2023-02-04T11:02:49.631Z,1.40
2023-02-04T11:05:22.540Z,1.23
2023-02-04T11:07:50.941Z,1.60
2023-02-04T11:10:23.630Z,1.12
2023-02-04T11:12:54.221Z,1.30
2023-02-04T11:16:11.137Z,1.67
2023-02-04T11:18:58.464Z,1.40
2023-02-04T11:21:28.641Z,1.23
2023-02-04T11:24:24.018Z,1.17
2023-02-04T11:26:54.089Z,1.47
2023-02-04T11:29:29.800Z,1.27
2023-02-04T11:32:00.873Z,1.10
2023-02-04T11:34:30.552Z,1.20
2023-02-04T11:37:00.976Z,1.50
2023-02-04T11:39:33.352Z,1.08
2023-02-04T11:42:01.194Z,1.50
2023-02-04T11:44:28.880Z,1.70
2023-02-04T19:14:24.805Z,2.45
2023-02-04T19:16:54.776Z,5.47
2023-02-04T19:19:48.609Z,4.43
2023-02-04T19:22:38.778Z,3.58
2023-02-04T19:25:29.734Z,4.10
2023-02-04T19:45:26.604Z,3.40
2023-02-04T19:47:55.756Z,3.17
2023-02-04T19:50:34.791Z,4.80
2023-02-04T19:53:11.162Z,3.55
2023-02-04T19:55:45.057Z,3.00
2023-02-04T19:58:23.388Z,3.37
2023-02-04T20:01:04.493Z,3.27
2023-02-04T20:03:43.899Z,3.00
2023-02-04T20:06:44.335Z,2.80
2023-02-04T20:09:34.009Z,3.62
2023-02-04T20:12:07.202Z,7.47
2023-02-04T20:14:51.975Z,4.18
2023-02-04T20:17:22.328Z,4.28
2023-02-04T20:19:51.416Z,9.43
2023-02-04T20:22:19.198Z,8.00
2023-02-04T20:25:27.596Z,5.55
2023-02-04T20:28:01.075Z,12.23
2023-02-04T20:30:31.037Z,8.02
2023-02-04T20:33:18.605Z,5.55
2023-02-04T20:35:52.363Z,8.63
2023-02-04T20:38:20.585Z,5.97
2023-02-04T20:40:49.309Z,6.50
2023-02-04T20:43:20.296Z,9.85
2023-02-04T21:06:55.866Z,4.28
